sensor_id;sensor_type;location;lat;lon;timestamp;P1;durP1;ratioP1;P2;durP2;ratioP2
5945;SDS011;2998;48.206;16.394;2022-10-18T00:00:22;35.63;;;23.10;;
5945;SDS011;2998;48.206;16.394;2022-10-18T00:02:54;36.07;;;22.37;;
5945;SDS011;2998;48.206;16.394;2022-10-18T00:05:21;36.83;;;22.10;;
5945;SDS011;2998;48.206;16.394;2022-10-18T00:07:49;28.87;;;19.47;;
5945;SDS011;2998;48.206;16.394;2022-10-18T00:10:17;28.00;;;19.97;;
5945;SDS011;2998;48.206;16.394;2022-10-18T00:12:45;32.77;;;21.40;;
5945;SDS011;2998;48.206;16.394;2022-10-18T00:15:13;40.60;;;21.43;;
5945;SDS011;2998;48.206;16.394;2022-10-18T00:17:41;29.27;;;19.20;;
5945;SDS011;2998;48.206;16.394;2022-10-18T00:20:11;36.17;;;21.80;;
5945;SDS011;2998;48.206;16.394;2022-10-18T00:22:39;32.00;;;21.27;;
5945;SDS011;2998;48.206;16.394;2022-10-18T00:25:08;30.80;;;21.10;;
5945;SDS011;2998;48.206;16.394;2022-10-18T00:27:36;28.30;;;18.97;;
5945;SDS011;2998;48.206;16.394;2022-10-18T00:30:04;31.23;;;20.00;;
5945;SDS011;2998;48.206;16.394;2022-10-18T00:32:34;31.20;;;21.33;;
5945;SDS011;2998;48.206;16.394;2022-10-18T00:35:03;39.77;;;21.17;;
5945;SDS011;2998;48.206;16.394;2022-10-18T00:37:33;34.43;;;20.67;;
5945;SDS011;2998;48.206;16.394;2022-10-18T00:40:01;30.23;;;20.00;;
5945;SDS011;2998;48.206;16.394;2022-10-18T00:42:30;39.57;;;20.43;;
5945;SDS011;2998;48.206;16.394;2022-10-18T00:47:50;21.90;;;17.03;;
5945;SDS011;2998;48.206;16.394;2022-10-18T00:50:19;26.43;;;18.97;;
5945;SDS011;2998;48.206;16.394;2022-10-18T00:52:49;28.10;;;19.17;;
5945;SDS011;2998;48.206;16.394;2022-10-18T00:55:19;23.70;;;17.20;;
5945;SDS011;2998;48.206;16.394;2022-10-18T00:57:47;21.80;;;17.33;;
5945;SDS011;2998;48.206;16.394;2022-10-18T01:00:16;25.93;;;18.43;;
5945;SDS011;2998;48.206;16.394;2022-10-18T01:02:44;23.10;;;17.90;;
5945;SDS011;2998;48.206;16.394;2022-10-18T01:05:14;30.30;;;18.90;;
5945;SDS011;2998;48.206;16.394;2022-10-18T01:07:50;26.67;;;18.13;;
5945;SDS011;2998;48.206;16.394;2022-10-18T01:10:27;30.27;;;19.63;;
5945;SDS011;2998;48.206;16.394;2022-10-18T01:13:02;23.87;;;17.73;;
5945;SDS011;2998;48.206;16.394;2022-10-18T01:15:38;23.13;;;17.53;;
5945;SDS011;2998;48.206;16.394;2022-10-18T01:18:11;23.03;;;18.00;;
5945;SDS011;2998;48.206;16.394;2022-10-18T01:29:57;26.53;;;16.67;;
5945;SDS011;2998;48.206;16.394;2022-10-18T01:32:36;25.47;;;17.90;;
5945;SDS011;2998;48.206;16.394;2022-10-18T01:35:08;26.30;;;18.07;;
5945;SDS011;2998;48.206;16.394;2022-10-18T01:37:38;28.67;;;18.90;;
5945;SDS011;2998;48.206;16.394;2022-10-18T01:40:07;27.37;;;17.97;;
5945;SDS011;2998;48.206;16.394;2022-10-18T01:42:35;30.93;;;18.37;;
5945;SDS011;2998;48.206;16.394;2022-10-18T01:45:04;24.23;;;17.27;;
5945;SDS011;2998;48.206;16.394;2022-10-18T01:47:34;26.43;;;18.57;;
5945;SDS011;2998;48.206;16.394;2022-10-18T01:50:04;24.23;;;17.50;;
5945;SDS011;2998;48.206;16.394;2022-10-18T01:52:33;27.60;;;18.87;;
5945;SDS011;2998;48.206;16.394;2022-10-18T01:55:01;30.27;;;19.53;;
5945;SDS011;2998;48.206;16.394;2022-10-18T01:57:31;26.23;;;19.10;;
5945;SDS011;2998;48.206;16.394;2022-10-18T02:00:04;26.43;;;18.83;;
5945;SDS011;2998;48.206;16.394;2022-10-18T02:02:39;29.20;;;17.97;;
5945;SDS011;2998;48.206;16.394;2022-10-18T02:05:12;26.63;;;18.30;;
5945;SDS011;2998;48.206;16.394;2022-10-18T02:07:46;24.00;;;18.60;;
5945;SDS011;2998;48.206;16.394;2022-10-18T02:10:37;23.77;;;17.70;;
5945;SDS011;2998;48.206;16.394;2022-10-18T02:13:08;29.97;;;19.40;;
5945;SDS011;2998;48.206;16.394;2022-10-18T02:15:38;26.20;;;18.63;;
5945;SDS011;2998;48.206;16.394;2022-10-18T02:18:10;30.27;;;20.87;;
5945;SDS011;2998;48.206;16.394;2022-10-18T02:20:40;30.20;;;19.63;;
5945;SDS011;2998;48.206;16.394;2022-10-18T02:23:08;35.80;;;19.17;;
5945;SDS011;2998;48.206;16.394;2022-10-18T02:25:37;31.43;;;18.50;;
5945;SDS011;2998;48.206;16.394;2022-10-18T02:28:05;29.40;;;19.73;;
5945;SDS011;2998;48.206;16.394;2022-10-18T02:30:35;26.57;;;17.20;;
5945;SDS011;2998;48.206;16.394;2022-10-18T02:33:06;29.03;;;18.70;;
5945;SDS011;2998;48.206;16.394;2022-10-18T02:35:41;39.10;;;18.10;;
5945;SDS011;2998;48.206;16.394;2022-10-18T02:38:13;24.00;;;18.00;;
5945;SDS011;2998;48.206;16.394;2022-10-18T02:40:42;26.30;;;18.80;;
5945;SDS011;2998;48.206;16.394;2022-10-18T02:43:10;22.40;;;17.73;;
5945;SDS011;2998;48.206;16.394;2022-10-18T02:45:37;28.97;;;18.77;;
5945;SDS011;2998;48.206;16.394;2022-10-18T02:48:05;26.57;;;19.43;;
5945;SDS011;2998;48.206;16.394;2022-10-18T02:50:35;33.73;;;19.70;;
5945;SDS011;2998;48.206;16.394;2022-10-18T02:53:03;28.57;;;19.17;;
5945;SDS011;2998;48.206;16.394;2022-10-18T02:55:31;31.50;;;18.90;;
5945;SDS011;2998;48.206;16.394;2022-10-18T02:57:59;29.70;;;18.00;;
5945;SDS011;2998;48.206;16.394;2022-10-18T03:00:27;36.03;;;19.87;;
5945;SDS011;2998;48.206;16.394;2022-10-18T03:02:55;29.57;;;19.23;;
5945;SDS011;2998;48.206;16.394;2022-10-18T03:05:23;28.83;;;18.23;;
5945;SDS011;2998;48.206;16.394;2022-10-18T03:07:52;36.40;;;20.07;;
5945;SDS011;2998;48.206;16.394;2022-10-18T03:10:23;29.67;;;18.20;;
5945;SDS011;2998;48.206;16.394;2022-10-18T03:12:51;34.23;;;19.37;;
5945;SDS011;2998;48.206;16.394;2022-10-18T03:15:18;27.17;;;18.90;;
5945;SDS011;2998;48.206;16.394;2022-10-18T03:17:46;32.53;;;19.50;;
5945;SDS011;2998;48.206;16.394;2022-10-18T03:20:14;27.80;;;16.43;;
5945;SDS011;2998;48.206;16.394;2022-10-18T03:22:42;30.87;;;18.03;;
5945;SDS011;2998;48.206;16.394;2022-10-18T03:25:11;27.80;;;17.50;;
5945;SDS011;2998;48.206;16.394;2022-10-18T03:27:39;29.00;;;19.23;;
5945;SDS011;2998;48.206;16.394;2022-10-18T03:30:08;25.67;;;18.07;;
5945;SDS011;2998;48.206;16.394;2022-10-18T03:32:37;29.20;;;18.43;;
5945;SDS011;2998;48.206;16.394;2022-10-18T03:35:05;31.53;;;18.47;;
5945;SDS011;2998;48.206;16.394;2022-10-18T03:37:34;21.80;;;16.40;;
5945;SDS011;2998;48.206;16.394;2022-10-18T03:40:03;27.30;;;18.20;;
5945;SDS011;2998;48.206;16.394;2022-10-18T03:42:33;30.20;;;16.83;;
5945;SDS011;2998;48.206;16.394;2022-10-18T03:45:01;23.90;;;16.63;;
5945;SDS011;2998;48.206;16.394;2022-10-18T03:47:29;28.80;;;17.50;;
5945;SDS011;2998;48.206;16.394;2022-10-18T03:49:56;23.30;;;16.17;;
5945;SDS011;2998;48.206;16.394;2022-10-18T03:52:24;33.53;;;16.47;;
5945;SDS011;2998;48.206;16.394;2022-10-18T03:54:52;21.77;;;15.83;;
5945;SDS011;2998;48.206;16.394;2022-10-18T03:57:20;24.03;;;15.77;;
5945;SDS011;2998;48.206;16.394;2022-10-18T03:59:52;23.00;;;15.90;;
5945;SDS011;2998;48.206;16.394;2022-10-18T04:02:20;22.57;;;15.10;;
5945;SDS011;2998;48.206;16.394;2022-10-18T04:04:48;19.87;;;15.80;;
5945;SDS011;2998;48.206;16.394;2022-10-18T04:07:16;24.70;;;15.47;;
5945;SDS011;2998;48.206;16.394;2022-10-18T04:09:46;21.73;;;16.30;;
5945;SDS011;2998;48.206;16.394;2022-10-18T04:12:14;21.57;;;15.47;;
5945;SDS011;2998;48.206;16.394;2022-10-18T04:14:42;25.43;;;15.07;;
5945;SDS011;2998;48.206;16.394;2022-10-18T04:17:11;22.30;;;13.93;;
5945;SDS011;2998;48.206;16.394;2022-10-18T04:19:41;18.47;;;15.50;;
5945;SDS011;2998;48.206;16.394;2022-10-18T04:22:09;26.33;;;16.17;;
5945;SDS011;2998;48.206;16.394;2022-10-18T04:24:38;20.53;;;15.53;;
5945;SDS011;2998;48.206;16.394;2022-10-18T04:27:06;25.40;;;17.03;;
5945;SDS011;2998;48.206;16.394;2022-10-18T04:29:34;23.33;;;16.33;;
5945;SDS011;2998;48.206;16.394;2022-10-18T04:32:02;28.10;;;16.90;;
5945;SDS011;2998;48.206;16.394;2022-10-18T04:34:31;25.57;;;16.60;;
5945;SDS011;2998;48.206;16.394;2022-10-18T04:37:00;24.00;;;16.40;;
5945;SDS011;2998;48.206;16.394;2022-10-18T04:39:28;22.53;;;14.03;;
5945;SDS011;2998;48.206;16.394;2022-10-18T04:41:56;23.60;;;15.97;;
5945;SDS011;2998;48.206;16.394;2022-10-18T04:44:23;31.20;;;16.63;;
5945;SDS011;2998;48.206;16.394;2022-10-18T04:46:51;23.40;;;15.93;;
5945;SDS011;2998;48.206;16.394;2022-10-18T04:49:19;34.27;;;19.30;;
5945;SDS011;2998;48.206;16.394;2022-10-18T04:51:49;26.63;;;17.57;;
5945;SDS011;2998;48.206;16.394;2022-10-18T04:54:20;24.63;;;17.30;;
5945;SDS011;2998;48.206;16.394;2022-10-18T04:56:53;35.23;;;18.13;;
5945;SDS011;2998;48.206;16.394;2022-10-18T04:59:21;28.03;;;19.37;;
5945;SDS011;2998;48.206;16.394;2022-10-18T05:01:49;25.63;;;19.00;;
5945;SDS011;2998;48.206;16.394;2022-10-18T05:04:17;28.13;;;20.63;;
5945;SDS011;2998;48.206;16.394;2022-10-18T05:06:45;28.83;;;21.00;;
5945;SDS011;2998;48.206;16.394;2022-10-18T05:09:15;24.70;;;18.10;;
5945;SDS011;2998;48.206;16.394;2022-10-18T05:11:43;40.57;;;20.80;;
5945;SDS011;2998;48.206;16.394;2022-10-18T05:14:12;31.77;;;18.97;;
5945;SDS011;2998;48.206;16.394;2022-10-18T05:16:45;29.93;;;17.87;;
5945;SDS011;2998;48.206;16.394;2022-10-18T05:19:13;30.67;;;18.80;;
5945;SDS011;2998;48.206;16.394;2022-10-18T05:21:41;26.50;;;18.27;;
5945;SDS011;2998;48.206;16.394;2022-10-18T05:24:10;29.43;;;18.10;;
5945;SDS011;2998;48.206;16.394;2022-10-18T05:26:39;26.07;;;16.97;;
5945;SDS011;2998;48.206;16.394;2022-10-18T05:29:07;18.53;;;15.27;;
5945;SDS011;2998;48.206;16.394;2022-10-18T05:31:35;21.30;;;15.00;;
5945;SDS011;2998;48.206;16.394;2022-10-18T05:34:04;21.73;;;15.07;;
5945;SDS011;2998;48.206;16.394;2022-10-18T05:36:31;19.77;;;14.97;;
5945;SDS011;2998;48.206;16.394;2022-10-18T05:39:01;19.90;;;14.77;;
5945;SDS011;2998;48.206;16.394;2022-10-18T05:41:30;19.80;;;15.50;;
5945;SDS011;2998;48.206;16.394;2022-10-18T05:44:03;19.50;;;14.47;;
5945;SDS011;2998;48.206;16.394;2022-10-18T05:46:32;19.30;;;14.17;;
5945;SDS011;2998;48.206;16.394;2022-10-18T05:49:00;19.93;;;14.13;;
5945;SDS011;2998;48.206;16.394;2022-10-18T05:51:28;25.40;;;13.20;;
5945;SDS011;2998;48.206;16.394;2022-10-18T05:53:58;20.67;;;14.00;;
5945;SDS011;2998;48.206;16.394;2022-10-18T05:56:26;24.27;;;14.10;;
5945;SDS011;2998;48.206;16.394;2022-10-18T05:58:54;21.27;;;15.10;;
5945;SDS011;2998;48.206;16.394;2022-10-18T06:01:23;22.00;;;14.53;;
5945;SDS011;2998;48.206;16.394;2022-10-18T06:03:51;34.40;;;16.07;;
5945;SDS011;2998;48.206;16.394;2022-10-18T06:06:19;22.20;;;16.20;;
5945;SDS011;2998;48.206;16.394;2022-10-18T06:08:50;26.20;;;18.33;;
5945;SDS011;2998;48.206;16.394;2022-10-18T06:11:18;33.13;;;20.50;;
5945;SDS011;2998;48.206;16.394;2022-10-18T06:13:47;33.53;;;19.77;;
5945;SDS011;2998;48.206;16.394;2022-10-18T06:16:17;26.43;;;17.93;;
5945;SDS011;2998;48.206;16.394;2022-10-18T06:18:47;31.20;;;16.80;;
5945;SDS011;2998;48.206;16.394;2022-10-18T06:21:16;29.83;;;16.30;;
5945;SDS011;2998;48.206;16.394;2022-10-18T06:23:46;26.83;;;17.50;;
5945;SDS011;2998;48.206;16.394;2022-10-18T06:26:15;37.60;;;18.80;;
5945;SDS011;2998;48.206;16.394;2022-10-18T06:28:42;25.47;;;17.87;;
5945;SDS011;2998;48.206;16.394;2022-10-18T06:31:11;42.47;;;23.30;;
5945;SDS011;2998;48.206;16.394;2022-10-18T06:33:39;41.40;;;22.33;;
5945;SDS011;2998;48.206;16.394;2022-10-18T06:36:10;34.23;;;20.40;;
5945;SDS011;2998;48.206;16.394;2022-10-18T06:38:39;23.10;;;17.40;;
5945;SDS011;2998;48.206;16.394;2022-10-18T06:41:07;23.30;;;15.93;;
5945;SDS011;2998;48.206;16.394;2022-10-18T06:43:35;25.27;;;15.87;;
5945;SDS011;2998;48.206;16.394;2022-10-18T06:46:03;22.93;;;13.17;;
5945;SDS011;2998;48.206;16.394;2022-10-18T06:48:33;19.10;;;15.07;;
5945;SDS011;2998;48.206;16.394;2022-10-18T06:51:02;21.00;;;15.27;;
5945;SDS011;2998;48.206;16.394;2022-10-18T06:53:32;20.87;;;14.87;;
5945;SDS011;2998;48.206;16.394;2022-10-18T06:56:13;18.43;;;14.00;;
5945;SDS011;2998;48.206;16.394;2022-10-18T06:58:41;21.20;;;13.27;;
5945;SDS011;2998;48.206;16.394;2022-10-18T07:01:10;17.67;;;13.77;;
5945;SDS011;2998;48.206;16.394;2022-10-18T07:03:41;23.10;;;14.50;;
5945;SDS011;2998;48.206;16.394;2022-10-18T07:06:09;16.97;;;12.80;;
5945;SDS011;2998;48.206;16.394;2022-10-18T07:08:40;15.70;;;13.50;;
5945;SDS011;2998;48.206;16.394;2022-10-18T07:11:10;19.10;;;13.23;;
5945;SDS011;2998;48.206;16.394;2022-10-18T07:13:41;16.77;;;12.30;;
5945;SDS011;2998;48.206;16.394;2022-10-18T07:16:10;19.50;;;12.77;;
5945;SDS011;2998;48.206;16.394;2022-10-18T07:18:45;20.00;;;13.83;;
5945;SDS011;2998;48.206;16.394;2022-10-18T07:21:15;18.07;;;13.50;;
5945;SDS011;2998;48.206;16.394;2022-10-18T07:23:45;17.47;;;13.83;;
5945;SDS011;2998;48.206;16.394;2022-10-18T07:26:15;14.63;;;11.80;;
5945;SDS011;2998;48.206;16.394;2022-10-18T07:28:45;16.93;;;12.63;;
5945;SDS011;2998;48.206;16.394;2022-10-18T07:31:16;15.30;;;12.60;;
5945;SDS011;2998;48.206;16.394;2022-10-18T07:33:44;16.47;;;13.90;;
5945;SDS011;2998;48.206;16.394;2022-10-18T07:36:12;15.80;;;11.80;;
5945;SDS011;2998;48.206;16.394;2022-10-18T07:38:40;15.33;;;12.50;;
5945;SDS011;2998;48.206;16.394;2022-10-18T07:41:10;16.60;;;13.70;;
5945;SDS011;2998;48.206;16.394;2022-10-18T07:43:40;25.33;;;14.07;;
5945;SDS011;2998;48.206;16.394;2022-10-18T07:46:09;15.83;;;11.50;;
5945;SDS011;2998;48.206;16.394;2022-10-18T07:48:38;13.93;;;11.43;;
5945;SDS011;2998;48.206;16.394;2022-10-18T07:51:06;13.47;;;11.50;;
5945;SDS011;2998;48.206;16.394;2022-10-18T07:53:37;13.20;;;11.50;;
5945;SDS011;2998;48.206;16.394;2022-10-18T07:56:06;14.50;;;11.83;;
5945;SDS011;2998;48.206;16.394;2022-10-18T07:58:38;11.43;;;10.33;;
5945;SDS011;2998;48.206;16.394;2022-10-18T08:01:06;16.93;;;13.70;;
5945;SDS011;2998;48.206;16.394;2022-10-18T08:03:35;33.60;;;21.33;;
5945;SDS011;2998;48.206;16.394;2022-10-18T08:06:04;29.43;;;17.13;;
5945;SDS011;2998;48.206;16.394;2022-10-18T08:08:34;27.27;;;20.60;;
5945;SDS011;2998;48.206;16.394;2022-10-18T08:11:04;32.70;;;23.07;;
5945;SDS011;2998;48.206;16.394;2022-10-18T08:13:33;19.57;;;14.70;;
5945;SDS011;2998;48.206;16.394;2022-10-18T08:16:02;17.37;;;14.30;;
5945;SDS011;2998;48.206;16.394;2022-10-18T08:18:32;16.80;;;13.07;;
5945;SDS011;2998;48.206;16.394;2022-10-18T08:21:00;20.20;;;14.70;;
5945;SDS011;2998;48.206;16.394;2022-10-18T08:23:28;23.07;;;16.07;;
5945;SDS011;2998;48.206;16.394;2022-10-18T08:25:59;17.67;;;13.47;;
5945;SDS011;2998;48.206;16.394;2022-10-18T08:28:27;13.23;;;11.33;;
5945;SDS011;2998;48.206;16.394;2022-10-18T08:30:56;13.20;;;11.80;;
5945;SDS011;2998;48.206;16.394;2022-10-18T08:33:25;12.23;;;11.03;;
5945;SDS011;2998;48.206;16.394;2022-10-18T08:35:53;15.50;;;12.47;;
5945;SDS011;2998;48.206;16.394;2022-10-18T08:38:21;16.07;;;12.53;;
5945;SDS011;2998;48.206;16.394;2022-10-18T08:40:49;14.63;;;12.40;;
5945;SDS011;2998;48.206;16.394;2022-10-18T08:43:21;14.10;;;11.63;;
5945;SDS011;2998;48.206;16.394;2022-10-18T08:45:53;13.77;;;11.07;;
5945;SDS011;2998;48.206;16.394;2022-10-18T08:48:23;12.13;;;10.63;;
5945;SDS011;2998;48.206;16.394;2022-10-18T08:50:55;12.73;;;9.57;;
5945;SDS011;2998;48.206;16.394;2022-10-18T08:53:25;11.20;;;10.07;;
5945;SDS011;2998;48.206;16.394;2022-10-18T08:55:56;13.07;;;11.60;;
5945;SDS011;2998;48.206;16.394;2022-10-18T08:58:30;10.80;;;9.47;;
5945;SDS011;2998;48.206;16.394;2022-10-18T09:01:02;11.50;;;10.33;;
5945;SDS011;2998;48.206;16.394;2022-10-18T09:03:43;10.30;;;9.27;;
5945;SDS011;2998;48.206;16.394;2022-10-18T09:06:21;11.30;;;10.00;;
5945;SDS011;2998;48.206;16.394;2022-10-18T09:08:55;9.77;;;8.80;;
5945;SDS011;2998;48.206;16.394;2022-10-18T09:11:38;11.13;;;10.03;;
5945;SDS011;2998;48.206;16.394;2022-10-18T09:14:26;10.87;;;9.77;;
5945;SDS011;2998;48.206;16.394;2022-10-18T09:17:03;11.70;;;10.70;;
5945;SDS011;2998;48.206;16.394;2022-10-18T09:19:49;10.23;;;9.33;;
5945;SDS011;2998;48.206;16.394;2022-10-18T09:22:34;12.20;;;10.87;;
5945;SDS011;2998;48.206;16.394;2022-10-18T09:25:10;12.00;;;10.90;;
5945;SDS011;2998;48.206;16.394;2022-10-18T09:27:46;12.00;;;10.67;;
5945;SDS011;2998;48.206;16.394;2022-10-18T09:30:21;11.27;;;10.23;;
5945;SDS011;2998;48.206;16.394;2022-10-18T09:32:58;12.37;;;9.73;;
5945;SDS011;2998;48.206;16.394;2022-10-18T09:35:32;11.97;;;10.80;;
5945;SDS011;2998;48.206;16.394;2022-10-18T09:38:08;12.87;;;11.67;;
5945;SDS011;2998;48.206;16.394;2022-10-18T09:40:42;14.17;;;11.63;;
5945;SDS011;2998;48.206;16.394;2022-10-18T09:43:15;13.10;;;11.80;;
5945;SDS011;2998;48.206;16.394;2022-10-18T09:45:44;13.90;;;11.90;;
5945;SDS011;2998;48.206;16.394;2022-10-18T09:48:14;16.63;;;12.90;;
5945;SDS011;2998;48.206;16.394;2022-10-18T09:50:47;14.77;;;11.57;;
5945;SDS011;2998;48.206;16.394;2022-10-18T09:53:18;15.00;;;13.00;;
5945;SDS011;2998;48.206;16.394;2022-10-18T09:55:52;14.50;;;12.70;;
5945;SDS011;2998;48.206;16.394;2022-10-18T09:58:23;12.67;;;11.37;;
5945;SDS011;2998;48.206;16.394;2022-10-18T10:00:53;14.73;;;13.07;;
5945;SDS011;2998;48.206;16.394;2022-10-18T10:03:22;14.00;;;12.20;;
5945;SDS011;2998;48.206;16.394;2022-10-18T10:06:00;13.40;;;12.10;;
5945;SDS011;2998;48.206;16.394;2022-10-18T10:08:32;13.67;;;12.27;;
5945;SDS011;2998;48.206;16.394;2022-10-18T10:11:01;14.53;;;12.87;;
5945;SDS011;2998;48.206;16.394;2022-10-18T10:13:32;16.10;;;12.50;;
5945;SDS011;2998;48.206;16.394;2022-10-18T10:16:00;14.17;;;12.80;;
5945;SDS011;2998;48.206;16.394;2022-10-18T10:18:29;14.67;;;13.33;;
5945;SDS011;2998;48.206;16.394;2022-10-18T10:20:58;17.40;;;13.50;;
5945;SDS011;2998;48.206;16.394;2022-10-18T10:23:29;15.80;;;14.20;;
5945;SDS011;2998;48.206;16.394;2022-10-18T10:26:00;17.20;;;15.40;;
5945;SDS011;2998;48.206;16.394;2022-10-18T10:28:29;18.00;;;16.07;;
5945;SDS011;2998;48.206;16.394;2022-10-18T10:33:51;19.60;;;16.27;;
5945;SDS011;2998;48.206;16.394;2022-10-18T10:36:26;18.60;;;15.70;;
5945;SDS011;2998;48.206;16.394;2022-10-18T10:39:02;18.17;;;16.23;;
5945;SDS011;2998;48.206;16.394;2022-10-18T10:41:31;21.47;;;18.70;;
5945;SDS011;2998;48.206;16.394;2022-10-18T10:44:00;20.33;;;18.17;;
5945;SDS011;2998;48.206;16.394;2022-10-18T10:46:32;27.30;;;18.20;;
5945;SDS011;2998;48.206;16.394;2022-10-18T10:49:02;25.07;;;19.23;;
5945;SDS011;2998;48.206;16.394;2022-10-18T10:51:54;22.63;;;18.60;;
5945;SDS011;2998;48.206;16.394;2022-10-18T10:54:42;22.97;;;18.50;;
5945;SDS011;2998;48.206;16.394;2022-10-18T10:57:19;24.03;;;19.73;;
5945;SDS011;2998;48.206;16.394;2022-10-18T10:59:49;23.20;;;18.90;;
5945;SDS011;2998;48.206;16.394;2022-10-18T11:02:19;28.43;;;20.03;;
5945;SDS011;2998;48.206;16.394;2022-10-18T11:04:48;23.70;;;20.80;;
5945;SDS011;2998;48.206;16.394;2022-10-18T11:07:20;26.20;;;20.90;;
5945;SDS011;2998;48.206;16.394;2022-10-18T11:09:53;22.77;;;20.27;;
5945;SDS011;2998;48.206;16.394;2022-10-18T11:12:26;34.27;;;21.57;;
5945;SDS011;2998;48.206;16.394;2022-10-18T11:15:02;25.23;;;21.80;;
5945;SDS011;2998;48.206;16.394;2022-10-18T11:17:38;29.10;;;22.57;;
5945;SDS011;2998;48.206;16.394;2022-10-18T11:20:11;25.73;;;20.80;;
5945;SDS011;2998;48.206;16.394;2022-10-18T11:22:50;29.37;;;21.83;;
5945;SDS011;2998;48.206;16.394;2022-10-18T11:25:26;25.40;;;22.23;;
5945;SDS011;2998;48.206;16.394;2022-10-18T11:28:02;28.83;;;22.63;;
5945;SDS011;2998;48.206;16.394;2022-10-18T11:30:36;28.67;;;22.03;;
5945;SDS011;2998;48.206;16.394;2022-10-18T11:33:13;23.67;;;20.10;;
5945;SDS011;2998;48.206;16.394;2022-10-18T11:36:11;25.77;;;20.80;;
5945;SDS011;2998;48.206;16.394;2022-10-18T11:38:43;25.90;;;20.50;;
5945;SDS011;2998;48.206;16.394;2022-10-18T11:41:22;23.50;;;20.00;;
5945;SDS011;2998;48.206;16.394;2022-10-18T11:43:56;23.10;;;19.47;;
5945;SDS011;2998;48.206;16.394;2022-10-18T11:46:35;22.43;;;20.03;;
5945;SDS011;2998;48.206;16.394;2022-10-18T11:49:14;25.50;;;20.60;;
5945;SDS011;2998;48.206;16.394;2022-10-18T11:51:51;22.87;;;18.67;;
5945;SDS011;2998;48.206;16.394;2022-10-18T11:54:42;25.90;;;20.53;;
5945;SDS011;2998;48.206;16.394;2022-10-18T11:57:24;22.63;;;20.03;;
5945;SDS011;2998;48.206;16.394;2022-10-18T12:00:10;25.10;;;19.97;;
5945;SDS011;2998;48.206;16.394;2022-10-18T12:02:53;26.20;;;21.77;;
5945;SDS011;2998;48.206;16.394;2022-10-18T12:05:30;24.93;;;20.40;;
5945;SDS011;2998;48.206;16.394;2022-10-18T12:08:00;26.07;;;21.50;;
5945;SDS011;2998;48.206;16.394;2022-10-18T12:10:32;22.43;;;19.57;;
5945;SDS011;2998;48.206;16.394;2022-10-18T12:13:22;25.37;;;20.37;;
5945;SDS011;2998;48.206;16.394;2022-10-18T12:16:00;29.50;;;21.03;;
5945;SDS011;2998;48.206;16.394;2022-10-18T12:18:29;26.60;;;21.50;;
5945;SDS011;2998;48.206;16.394;2022-10-18T12:20:58;33.03;;;23.40;;
5945;SDS011;2998;48.206;16.394;2022-10-18T12:23:30;28.10;;;22.80;;
5945;SDS011;2998;48.206;16.394;2022-10-18T12:26:04;31.13;;;24.53;;
5945;SDS011;2998;48.206;16.394;2022-10-18T12:28:37;30.70;;;24.10;;
5945;SDS011;2998;48.206;16.394;2022-10-18T12:31:16;35.03;;;24.97;;
5945;SDS011;2998;48.206;16.394;2022-10-18T12:33:47;32.13;;;25.10;;
5945;SDS011;2998;48.206;16.394;2022-10-18T12:36:31;37.73;;;26.03;;
5945;SDS011;2998;48.206;16.394;2022-10-18T12:39:11;35.60;;;27.57;;
5945;SDS011;2998;48.206;16.394;2022-10-18T12:42:13;36.73;;;27.50;;
5945;SDS011;2998;48.206;16.394;2022-10-18T12:44:44;38.00;;;28.87;;
5945;SDS011;2998;48.206;16.394;2022-10-18T12:47:19;40.70;;;28.60;;
5945;SDS011;2998;48.206;16.394;2022-10-18T12:49:54;38.40;;;29.57;;
5945;SDS011;2998;48.206;16.394;2022-10-18T12:52:23;46.10;;;30.10;;
5945;SDS011;2998;48.206;16.394;2022-10-18T12:55:00;35.33;;;29.27;;
5945;SDS011;2998;48.206;16.394;2022-10-18T13:06:09;44.23;;;30.80;;
5945;SDS011;2998;48.206;16.394;2022-10-18T13:08:38;39.60;;;29.40;;
5945;SDS011;2998;48.206;16.394;2022-10-18T13:14:04;37.90;;;29.00;;
5945;SDS011;2998;48.206;16.394;2022-10-18T13:16:44;37.10;;;29.40;;
5945;SDS011;2998;48.206;16.394;2022-10-18T13:19:17;39.13;;;28.13;;
5945;SDS011;2998;48.206;16.394;2022-10-18T13:21:50;36.07;;;27.87;;
5945;SDS011;2998;48.206;16.394;2022-10-18T13:24:25;39.97;;;29.57;;
5945;SDS011;2998;48.206;16.394;2022-10-18T13:27:09;37.80;;;28.33;;
5945;SDS011;2998;48.206;16.394;2022-10-18T13:32:58;34.97;;;27.60;;
5945;SDS011;2998;48.206;16.394;2022-10-18T13:38:38;32.53;;;26.40;;
5945;SDS011;2998;48.206;16.394;2022-10-18T13:41:15;34.87;;;27.77;;
5945;SDS011;2998;48.206;16.394;2022-10-18T13:43:55;31.63;;;25.53;;
5945;SDS011;2998;48.206;16.394;2022-10-18T13:47:07;34.00;;;26.00;;
5945;SDS011;2998;48.206;16.394;2022-10-18T13:49:57;33.07;;;24.33;;
5945;SDS011;2998;48.206;16.394;2022-10-18T13:55:51;32.53;;;25.40;;
5945;SDS011;2998;48.206;16.394;2022-10-18T13:58:23;30.93;;;23.70;;
5945;SDS011;2998;48.206;16.394;2022-10-18T14:01:00;29.73;;;24.33;;
5945;SDS011;2998;48.206;16.394;2022-10-18T14:03:39;29.10;;;21.47;;
5945;SDS011;2998;48.206;16.394;2022-10-18T14:06:23;35.70;;;24.63;;
5945;SDS011;2998;48.206;16.394;2022-10-18T14:08:55;35.10;;;25.97;;
5945;SDS011;2998;48.206;16.394;2022-10-18T14:11:40;27.53;;;22.30;;
5945;SDS011;2998;48.206;16.394;2022-10-18T14:14:12;36.00;;;22.40;;
5945;SDS011;2998;48.206;16.394;2022-10-18T14:16:42;41.17;;;27.83;;
5945;SDS011;2998;48.206;16.394;2022-10-18T14:19:20;31.40;;;22.30;;
5945;SDS011;2998;48.206;16.394;2022-10-18T14:21:57;27.90;;;20.30;;
5945;SDS011;2998;48.206;16.394;2022-10-18T14:24:28;26.17;;;20.77;;
5945;SDS011;2998;48.206;16.394;2022-10-18T14:27:10;25.07;;;19.60;;
5945;SDS011;2998;48.206;16.394;2022-10-18T14:29:39;28.10;;;20.80;;
5945;SDS011;2998;48.206;16.394;2022-10-18T14:32:26;26.43;;;19.40;;
5945;SDS011;2998;48.206;16.394;2022-10-18T14:34:56;27.30;;;20.33;;
5945;SDS011;2998;48.206;16.394;2022-10-18T14:37:45;23.87;;;18.37;;
5945;SDS011;2998;48.206;16.394;2022-10-18T14:40:27;26.00;;;20.03;;
5945;SDS011;2998;48.206;16.394;2022-10-18T14:43:00;25.10;;;19.30;;
5945;SDS011;2998;48.206;16.394;2022-10-18T14:45:29;23.30;;;17.80;;
5945;SDS011;2998;48.206;16.394;2022-10-18T14:48:07;26.93;;;19.20;;
5945;SDS011;2998;48.206;16.394;2022-10-18T14:50:42;25.27;;;19.20;;
5945;SDS011;2998;48.206;16.394;2022-10-18T14:53:13;23.07;;;18.30;;
5945;SDS011;2998;48.206;16.394;2022-10-18T14:55:50;23.67;;;17.40;;
5945;SDS011;2998;48.206;16.394;2022-10-18T14:58:19;19.70;;;17.40;;
5945;SDS011;2998;48.206;16.394;2022-10-18T15:00:47;21.27;;;17.23;;
5945;SDS011;2998;48.206;16.394;2022-10-18T15:03:15;20.47;;;16.73;;
5945;SDS011;2998;48.206;16.394;2022-10-18T15:05:52;35.73;;;17.87;;
5945;SDS011;2998;48.206;16.394;2022-10-18T15:08:22;27.70;;;18.30;;
5945;SDS011;2998;48.206;16.394;2022-10-18T15:10:50;26.07;;;17.80;;
5945;SDS011;2998;48.206;16.394;2022-10-18T15:13:18;23.30;;;15.27;;
5945;SDS011;2998;48.206;16.394;2022-10-18T15:15:46;27.03;;;16.77;;
5945;SDS011;2998;48.206;16.394;2022-10-18T15:18:18;21.40;;;16.57;;
5945;SDS011;2998;48.206;16.394;2022-10-18T15:23:35;25.10;;;17.73;;
5945;SDS011;2998;48.206;16.394;2022-10-18T15:26:03;22.10;;;16.67;;
5945;SDS011;2998;48.206;16.394;2022-10-18T15:28:33;23.97;;;16.90;;
5945;SDS011;2998;48.206;16.394;2022-10-18T15:31:02;20.03;;;17.27;;
5945;SDS011;2998;48.206;16.394;2022-10-18T15:33:32;29.00;;;18.03;;
5945;SDS011;2998;48.206;16.394;2022-10-18T15:36:08;20.50;;;15.60;;
5945;SDS011;2998;48.206;16.394;2022-10-18T15:38:37;22.80;;;17.20;;
5945;SDS011;2998;48.206;16.394;2022-10-18T15:44:13;22.53;;;18.13;;